createdAt,value
2022-12-25T00:01:52.283Z,8.50
2022-12-25T00:04:19.904Z,8.52
2022-12-25T00:06:47.346Z,8.52
2022-12-25T00:09:14.857Z,8.54
2022-12-25T00:11:42.755Z,8.54
2022-12-25T00:14:10.215Z,8.55
2022-12-25T00:16:37.794Z,8.57
2022-12-25T00:19:05.319Z,8.57
2022-12-25T00:21:33.345Z,8.58
2022-12-25T00:24:01.668Z,8.59
2022-12-25T00:26:31.605Z,8.58
2022-12-25T00:28:59.646Z,8.61
2022-12-25T00:31:27.768Z,8.62
2022-12-25T00:33:55.298Z,8.63
2022-12-25T00:36:28.305Z,8.65
2022-12-25T00:38:55.802Z,8.66
2022-12-25T00:41:43.295Z,8.68
2022-12-25T00:44:13.906Z,8.69
2022-12-25T00:46:42.267Z,8.70
2022-12-25T00:49:11.812Z,8.72
2022-12-25T00:51:39.798Z,8.74
2022-12-25T00:54:07.849Z,8.75
2022-12-25T00:56:36.042Z,8.77
2022-12-25T00:59:04.225Z,8.79
2022-12-25T01:01:32.317Z,8.80
2022-12-25T01:04:00.519Z,8.83
2022-12-25T01:06:28.692Z,8.86
2022-12-25T01:09:15.966Z,8.86
2022-12-25T01:11:43.973Z,8.88
2022-12-25T01:14:11.988Z,8.89
2022-12-25T01:16:45.340Z,8.90
2022-12-25T01:19:12.900Z,8.89
2022-12-25T01:21:40.429Z,8.91
2022-12-25T01:24:08.347Z,8.90
2022-12-25T01:26:35.784Z,8.90
2022-12-25T01:29:03.395Z,8.90
2022-12-25T01:31:30.873Z,8.89
2022-12-25T01:33:58.481Z,8.90
2022-12-25T01:36:27.070Z,8.90
2022-12-25T01:38:54.955Z,8.91
2022-12-25T01:41:24.953Z,8.92
2022-12-25T01:44:08.283Z,8.94
2022-12-25T01:46:36.385Z,8.92
2022-12-25T01:49:13.642Z,8.94
2022-12-25T01:51:59.434Z,8.94
2022-12-25T01:54:34.067Z,8.93
2022-12-25T01:57:09.759Z,8.95
2022-12-25T01:59:37.544Z,8.94
2022-12-25T02:02:05.295Z,8.95
2022-12-25T02:04:42.008Z,8.97
2022-12-25T02:07:26.766Z,8.98
2022-12-25T02:09:54.553Z,8.95
2022-12-25T02:12:26.661Z,8.96
2022-12-25T02:15:04.913Z,8.96
2022-12-25T02:17:48.627Z,8.97
2022-12-25T02:21:18.012Z,8.98
2022-12-25T02:23:58.491Z,8.96
2022-12-25T02:27:18.119Z,8.99
2022-12-25T02:30:02.279Z,8.98
2022-12-25T02:32:46.846Z,8.98
2022-12-25T02:35:33.300Z,9.00
2022-12-25T02:38:09.764Z,9.00
2022-12-25T02:40:50.159Z,9.01
2022-12-25T02:43:49.820Z,9.02
2022-12-25T02:46:41.561Z,9.00
2022-12-25T02:49:35.136Z,9.01
2022-12-25T02:52:31.119Z,9.01
2022-12-25T02:55:32.781Z,9.01
2022-12-25T02:58:25.873Z,9.00
2022-12-25T03:01:23.217Z,8.99
2022-12-25T03:04:17.617Z,8.98
2022-12-25T03:07:12.216Z,8.97
2022-12-25T03:10:10.831Z,8.96
2022-12-25T03:12:51.701Z,8.95
2022-12-25T03:15:39.750Z,8.94
2022-12-25T03:18:15.266Z,8.92
2022-12-25T03:21:01.536Z,8.90
2022-12-25T03:23:53.463Z,8.89
2022-12-25T03:26:39.571Z,8.79
2022-12-25T03:29:07.079Z,8.75
2022-12-25T03:32:01.752Z,8.77
2022-12-25T03:35:19.729Z,8.74
2022-12-25T03:38:40.543Z,8.72
2022-12-25T03:41:52.257Z,8.67
2022-12-25T03:45:08.429Z,8.64
2022-12-25T03:48:00.849Z,8.60
2022-12-25T03:50:57.647Z,8.57
2022-12-25T03:53:50.249Z,8.51
2022-12-25T03:56:38.306Z,8.46
2022-12-25T03:59:24.479Z,8.41
2022-12-25T04:02:11.245Z,8.37
2022-12-25T04:04:57.916Z,8.34
2022-12-25T04:07:43.827Z,8.31
2022-12-25T04:10:30.144Z,8.30
2022-12-25T04:13:16.124Z,8.27
2022-12-25T04:16:02.204Z,8.24
2022-12-25T04:18:48.450Z,8.23
2022-12-25T04:21:34.482Z,8.21
2022-12-25T04:24:20.528Z,8.20
2022-12-25T04:27:06.584Z,8.18
2022-12-25T04:30:03.181Z,8.15
2022-12-25T04:32:49.645Z,8.11
2022-12-25T04:35:35.706Z,8.08
2022-12-25T04:38:03.185Z,8.06
2022-12-25T04:40:30.641Z,8.06
2022-12-25T04:42:58.065Z,8.02
2022-12-25T04:45:25.579Z,8.01
2022-12-25T04:47:52.996Z,7.98
2022-12-25T04:50:20.565Z,7.97
2022-12-25T04:52:47.970Z,7.96
2022-12-25T04:55:15.421Z,7.93
2022-12-25T04:57:42.851Z,7.90
2022-12-25T05:00:10.962Z,7.88
2022-12-25T05:02:38.616Z,7.84
2022-12-25T05:05:06.512Z,7.82
2022-12-25T05:07:33.936Z,7.79
2022-12-25T05:10:01.364Z,7.76
2022-12-25T05:12:28.769Z,7.73
2022-12-25T05:14:56.200Z,7.70
2022-12-25T05:17:23.778Z,7.69
2022-12-25T05:19:51.188Z,7.64
2022-12-25T05:22:18.619Z,7.61
2022-12-25T05:24:46.129Z,7.58
2022-12-25T05:27:15.589Z,7.58
2022-12-25T05:29:43.173Z,7.53
2022-12-25T05:32:10.661Z,7.51
2022-12-25T05:34:38.113Z,7.46
2022-12-25T05:37:05.559Z,7.44
2022-12-25T05:39:32.970Z,7.41
2022-12-25T05:42:00.424Z,7.37
2022-12-25T05:44:27.850Z,7.36
2022-12-25T05:46:55.339Z,7.36
2022-12-25T05:49:22.958Z,7.35
2022-12-25T05:51:50.386Z,7.35
2022-12-25T05:54:17.911Z,7.35
2022-12-25T05:56:45.331Z,7.36
2022-12-25T05:59:12.793Z,7.36
2022-12-25T06:01:40.340Z,7.37
2022-12-25T06:04:12.428Z,7.39
2022-12-25T06:06:41.399Z,7.41
2022-12-25T06:09:12.001Z,7.43
2022-12-25T06:11:40.476Z,7.43
2022-12-25T06:14:13.306Z,7.46
2022-12-25T06:16:41.355Z,7.47
2022-12-25T06:19:08.891Z,7.49
2022-12-25T06:21:36.927Z,7.51
2022-12-25T06:24:04.868Z,7.53
2022-12-25T06:26:32.418Z,7.53
2022-12-25T06:28:59.859Z,7.53
2022-12-25T06:31:27.421Z,7.53
2022-12-25T06:33:55.712Z,7.54
2022-12-25T06:36:27.483Z,7.57
2022-12-25T06:38:55.928Z,7.58
2022-12-25T06:41:26.665Z,7.59
2022-12-25T06:43:57.398Z,7.60
2022-12-25T06:46:27.947Z,7.61
2022-12-25T06:48:57.638Z,7.63
2022-12-25T06:51:29.425Z,7.66
2022-12-25T06:53:58.310Z,7.68
2022-12-25T06:56:28.053Z,7.70
2022-12-25T06:59:02.916Z,7.72
2022-12-25T07:01:50.335Z,7.75
2022-12-25T07:04:23.666Z,7.77
2022-12-25T07:06:51.131Z,7.79
2022-12-25T07:09:18.721Z,7.79
2022-12-25T07:11:46.148Z,7.83
2022-12-25T07:14:24.400Z,7.84
2022-12-25T07:16:52.386Z,7.86
2022-12-25T07:19:20.035Z,7.86
2022-12-25T07:21:47.487Z,7.89
2022-12-25T07:24:20.537Z,7.90
2022-12-25T07:26:49.543Z,7.91
2022-12-25T07:29:18.291Z,7.94
2022-12-25T07:31:47.027Z,7.97
2022-12-25T07:34:17.271Z,7.99
2022-12-25T07:36:44.969Z,8.02
2022-12-25T07:39:13.260Z,8.04
2022-12-25T07:41:40.740Z,8.06
2022-12-25T07:44:16.058Z,8.10
2022-12-25T07:46:43.774Z,8.13
2022-12-25T07:49:12.091Z,8.15
2022-12-25T07:51:39.807Z,8.17
2022-12-25T07:54:07.440Z,8.20
2022-12-25T07:56:35.115Z,8.23
2022-12-25T07:59:02.595Z,8.26
2022-12-25T08:01:30.532Z,8.27
2022-12-25T08:04:01.426Z,8.29
2022-12-25T08:06:33.001Z,8.31
2022-12-25T08:09:08.698Z,8.32
2022-12-25T08:11:37.345Z,8.33
2022-12-25T08:14:10.395Z,8.34
2022-12-25T08:16:41.633Z,8.35
2022-12-25T08:19:10.309Z,8.38
2022-12-25T08:21:38.379Z,8.39
2022-12-25T08:24:06.253Z,8.41
2022-12-25T08:26:33.820Z,8.43
2022-12-25T08:29:01.279Z,8.44
2022-12-25T08:31:30.476Z,8.47
2022-12-25T08:34:02.296Z,8.48
2022-12-25T08:36:29.885Z,8.41
2022-12-25T08:39:02.521Z,8.43
2022-12-25T08:41:32.255Z,8.46
2022-12-25T08:43:59.724Z,8.47
2022-12-25T08:46:27.257Z,8.50
2022-12-25T08:48:56.698Z,8.51
2022-12-25T08:51:26.334Z,8.52
2022-12-25T08:53:59.722Z,8.55
2022-12-25T08:56:28.680Z,8.55
2022-12-25T08:58:56.176Z,8.56
2022-12-25T09:01:23.727Z,8.55
2022-12-25T09:03:51.399Z,8.55
2022-12-25T09:06:18.948Z,8.56
2022-12-25T09:08:49.587Z,8.56
2022-12-25T09:11:19.661Z,8.57
2022-12-25T09:13:48.725Z,8.58
2022-12-25T09:16:21.293Z,8.61
2022-12-25T09:18:49.685Z,8.61
2022-12-25T09:21:18.937Z,8.61
2022-12-25T09:23:46.494Z,8.62
2022-12-25T09:26:17.452Z,8.65
2022-12-25T09:28:51.341Z,8.66
2022-12-25T09:31:22.884Z,8.69
2022-12-25T09:33:51.723Z,8.72
2022-12-25T09:36:23.184Z,8.74
2022-12-25T09:38:51.425Z,8.76
2022-12-25T09:41:32.570Z,8.78
2022-12-25T09:44:13.883Z,8.79
2022-12-25T09:47:13.737Z,8.78
2022-12-25T09:49:53.675Z,8.80
2022-12-25T09:52:34.538Z,8.80
2022-12-25T09:55:24.718Z,8.81
2022-12-25T09:57:56.727Z,8.82
2022-12-25T10:00:33.873Z,8.84
2022-12-25T10:03:24.303Z,8.86
2022-12-25T10:06:22.390Z,8.85
2022-12-25T10:09:15.206Z,8.88
2022-12-25T10:11:58.748Z,8.88
2022-12-25T10:15:18.722Z,8.91
2022-12-25T10:18:25.735Z,8.93
2022-12-25T10:20:57.326Z,8.91
2022-12-25T10:23:40.729Z,8.94
2022-12-25T10:26:21.876Z,8.96
2022-12-25T10:29:09.590Z,8.97
2022-12-25T10:31:37.521Z,8.98
2022-12-25T10:34:06.831Z,9.01
2022-12-25T10:36:34.378Z,9.01
2022-12-25T10:39:01.979Z,9.02
2022-12-25T10:41:44.859Z,9.05
2022-12-25T10:44:20.360Z,9.04
2022-12-25T10:46:51.194Z,9.04
2022-12-25T10:49:23.755Z,9.05
2022-12-25T10:51:52.086Z,9.04
2022-12-25T10:54:35.056Z,9.06
2022-12-25T10:57:09.719Z,9.05
2022-12-25T10:59:56.521Z,9.05
2022-12-25T11:02:26.526Z,9.05
2022-12-25T11:05:28.595Z,9.05
2022-12-25T11:07:59.515Z,9.03
2022-12-25T11:10:38.002Z,9.06
2022-12-25T11:13:16.061Z,9.06
2022-12-25T11:16:02.857Z,9.08
2022-12-25T11:18:44.672Z,9.09
2022-12-25T11:21:22.529Z,9.03
2022-12-25T11:24:22.281Z,9.05
2022-12-25T11:27:00.241Z,9.06
2022-12-25T11:29:45.007Z,9.10
2022-12-25T11:32:30.940Z,9.09
2022-12-25T11:35:02.513Z,9.07
2022-12-25T11:37:38.212Z,9.08
2022-12-25T11:40:13.773Z,9.09
2022-12-25T11:43:07.615Z,9.13
2022-12-25T11:45:46.727Z,9.16
2022-12-25T11:48:27.988Z,9.16
2022-12-25T11:51:01.266Z,9.15
2022-12-25T11:53:39.733Z,9.16
2022-12-25T11:56:18.639Z,9.14
2022-12-25T11:58:54.618Z,9.13
2022-12-25T12:01:42.466Z,9.14
2022-12-25T12:04:36.888Z,9.13
2022-12-25T12:07:25.819Z,9.12
2022-12-25T12:10:28.336Z,9.11
2022-12-25T12:13:30.042Z,9.09
2022-12-25T12:15:58.542Z,9.07
2022-12-25T12:18:25.915Z,9.10
2022-12-25T12:21:02.628Z,9.13
2022-12-25T12:23:36.725Z,9.11
2022-12-25T12:26:04.893Z,9.11
2022-12-25T12:28:45.857Z,9.13
2022-12-25T12:31:14.217Z,9.10
2022-12-25T12:33:52.004Z,9.10
2022-12-25T12:36:34.411Z,9.10
2022-12-25T12:39:05.059Z,9.12
2022-12-25T12:41:59.241Z,9.13
2022-12-25T12:44:34.681Z,9.13
2022-12-25T12:47:02.677Z,9.14
2022-12-25T12:49:33.654Z,9.17
2022-12-25T12:52:32.802Z,9.20
2022-12-25T12:55:08.796Z,9.21
2022-12-25T12:57:39.835Z,9.26
2022-12-25T13:00:21.252Z,9.30
2022-12-25T13:03:12.654Z,9.33
2022-12-25T13:05:50.131Z,9.35
2022-12-25T13:08:37.583Z,9.38
2022-12-25T13:11:35.215Z,9.37
2022-12-25T13:14:03.711Z,9.38
2022-12-25T13:16:38.899Z,9.41
2022-12-25T13:19:14.547Z,9.42
2022-12-25T13:21:57.079Z,9.42
2022-12-25T13:24:32.272Z,9.42
2022-12-25T13:27:00.667Z,9.43
2022-12-25T13:29:38.183Z,9.45
2022-12-25T13:32:25.247Z,9.46
2022-12-25T13:34:53.934Z,9.44
2022-12-25T13:37:25.771Z,9.42
2022-12-25T13:39:56.789Z,9.42
2022-12-25T13:42:30.110Z,9.42
2022-12-25T13:45:02.289Z,9.45
2022-12-25T13:47:38.484Z,9.48
2022-12-25T13:50:27.946Z,9.51
2022-12-25T13:52:58.247Z,9.50
2022-12-25T13:55:30.537Z,9.52
2022-12-25T13:58:03.468Z,9.52
2022-12-25T14:00:56.706Z,9.52
2022-12-25T14:03:35.540Z,9.52
2022-12-25T14:06:16.128Z,9.50
2022-12-25T14:08:45.219Z,9.50
2022-12-25T14:11:17.644Z,9.51
2022-12-25T14:13:48.840Z,9.52
2022-12-25T14:16:20.717Z,9.54
2022-12-25T14:18:59.814Z,9.54
2022-12-25T14:21:38.563Z,9.54
2022-12-25T14:24:15.078Z,9.52
2022-12-25T14:26:43.487Z,9.51
2022-12-25T14:29:25.020Z,9.52
2022-12-25T14:32:00.531Z,9.51
2022-12-25T14:34:30.528Z,9.50
2022-12-25T14:36:58.170Z,9.49
2022-12-25T14:39:37.304Z,9.51
2022-12-25T14:42:32.502Z,9.51
2022-12-25T14:45:25.091Z,9.50
2022-12-25T14:48:24.545Z,9.51
2022-12-25T14:51:08.030Z,9.51
2022-12-25T14:53:49.018Z,9.51
2022-12-25T14:56:22.537Z,9.51
2022-12-25T14:58:54.994Z,9.50
2022-12-25T15:01:35.514Z,9.50
2022-12-25T15:04:17.955Z,9.52
2022-12-25T15:07:07.096Z,9.52
2022-12-25T15:09:36.163Z,9.51
2022-12-25T15:12:03.991Z,9.52
2022-12-25T15:14:31.516Z,9.53
2022-12-25T15:17:01.663Z,9.56
2022-12-25T15:19:38.688Z,9.59
2022-12-25T15:22:06.990Z,9.57
2022-12-25T15:24:34.453Z,9.58
2022-12-25T15:27:01.997Z,9.58
2022-12-25T15:30:07.692Z,9.58
2022-12-25T15:32:21.445Z,9.58
2022-12-25T15:34:50.051Z,9.59
2022-12-25T15:37:18.925Z,9.59
2022-12-25T15:39:46.746Z,9.58
2022-12-25T15:42:18.398Z,9.60
2022-12-25T15:44:45.867Z,9.52
2022-12-25T15:47:15.958Z,9.51
2022-12-25T15:49:43.783Z,9.50
2022-12-25T15:52:15.818Z,9.51
2022-12-25T15:54:43.640Z,9.50
2022-12-25T15:57:21.049Z,9.49
2022-12-25T15:59:48.970Z,9.47
2022-12-25T16:02:19.900Z,9.46
2022-12-25T16:04:47.857Z,9.44
2022-12-25T16:07:23.759Z,9.47
2022-12-25T16:09:51.960Z,9.45
2022-12-25T16:12:19.856Z,9.44
2022-12-25T16:14:47.362Z,9.43
2022-12-25T16:17:16.051Z,9.43
2022-12-25T16:19:44.908Z,9.43
2022-12-25T16:22:19.776Z,9.44
2022-12-25T16:24:48.571Z,9.42
2022-12-25T16:27:16.082Z,9.40
2022-12-25T16:29:43.716Z,9.40
2022-12-25T16:32:12.767Z,9.38
2022-12-25T16:34:41.170Z,9.37
2022-12-25T16:37:08.681Z,9.35
2022-12-25T16:39:36.199Z,9.36
2022-12-25T16:42:03.758Z,9.37
2022-12-25T16:44:31.286Z,9.36
2022-12-25T16:46:58.795Z,9.36
2022-12-25T16:49:26.311Z,9.34
2022-12-25T16:51:53.894Z,9.34
2022-12-25T16:54:21.392Z,9.35
2022-12-25T16:56:51.483Z,9.34
2022-12-25T16:59:19.091Z,9.35
2022-12-25T17:01:46.697Z,9.35
2022-12-25T17:04:14.292Z,9.36
2022-12-25T17:06:41.848Z,9.38
2022-12-25T17:09:10.567Z,9.38
2022-12-25T17:11:38.000Z,9.38
2022-12-25T17:14:06.215Z,9.39
2022-12-25T17:16:36.616Z,9.40
2022-12-25T17:19:12.939Z,9.40
2022-12-25T17:21:40.410Z,9.39
2022-12-25T17:24:09.055Z,9.40
2022-12-25T17:26:37.002Z,9.40
2022-12-25T17:29:04.487Z,9.40
2022-12-25T17:31:32.018Z,9.40
2022-12-25T17:34:02.144Z,9.40
2022-12-25T17:36:31.195Z,9.40
2022-12-25T17:39:00.850Z,9.40
2022-12-25T17:41:29.319Z,9.41
2022-12-25T17:43:56.821Z,9.41
2022-12-25T17:46:29.778Z,9.41
2022-12-25T17:49:00.836Z,9.42
2022-12-25T17:51:30.680Z,9.41
2022-12-25T17:54:04.540Z,9.42
2022-12-25T17:56:32.722Z,9.40
2022-12-25T17:59:06.830Z,9.39
2022-12-25T18:01:38.568Z,9.39
2022-12-25T18:04:06.950Z,9.40
2022-12-25T18:06:36.879Z,9.41
2022-12-25T18:09:06.257Z,9.40
2022-12-25T18:11:34.176Z,9.41
2022-12-25T18:14:06.869Z,9.42
2022-12-25T18:16:38.333Z,9.42
2022-12-25T18:19:06.487Z,9.41
2022-12-25T18:21:34.373Z,9.42
2022-12-25T18:24:04.481Z,9.42
2022-12-25T18:26:32.469Z,9.42
2022-12-25T18:29:00.173Z,9.42
2022-12-25T18:31:32.296Z,9.42
2022-12-25T18:34:00.648Z,9.41
2022-12-25T18:36:29.857Z,9.40
2022-12-25T18:38:58.800Z,9.41
2022-12-25T18:41:28.403Z,9.40
2022-12-25T18:43:56.370Z,9.40
2022-12-25T18:46:26.690Z,9.40
2022-12-25T18:48:56.695Z,9.41
2022-12-25T18:51:24.835Z,9.41
2022-12-25T18:53:52.301Z,9.42
2022-12-25T18:56:20.524Z,9.43
2022-12-25T18:58:48.181Z,9.44
2022-12-25T19:01:22.554Z,9.45
2022-12-25T19:03:53.910Z,9.45
2022-12-25T19:06:28.200Z,9.46
2022-12-25T19:08:56.332Z,9.45
2022-12-25T19:11:23.785Z,9.46
2022-12-25T19:13:51.203Z,9.48
2022-12-25T19:16:18.805Z,9.46
2022-12-25T19:18:46.286Z,9.49
2022-12-25T19:21:13.788Z,9.51
2022-12-25T19:23:41.286Z,9.51
2022-12-25T19:26:11.108Z,9.52
2022-12-25T19:28:39.664Z,9.52
2022-12-25T19:31:09.389Z,9.53
2022-12-25T19:33:41.734Z,9.53
2022-12-25T19:36:13.273Z,9.54
2022-12-25T19:38:41.240Z,9.54
2022-12-25T19:41:16.043Z,9.55
2022-12-25T19:43:47.602Z,9.55
2022-12-25T19:46:23.884Z,9.55
2022-12-25T19:48:59.643Z,9.55
2022-12-25T19:51:29.446Z,9.55
2022-12-25T19:53:57.014Z,9.56
2022-12-25T19:56:26.605Z,9.58
2022-12-25T19:58:54.944Z,9.58
2022-12-25T20:01:26.923Z,9.60
2022-12-25T20:03:54.891Z,9.60
2022-12-25T20:06:28.840Z,9.60
2022-12-25T20:09:05.102Z,9.61
2022-12-25T20:11:35.061Z,9.61
2022-12-25T20:14:03.379Z,9.61
2022-12-25T20:16:31.167Z,9.60
2022-12-25T20:19:02.294Z,9.61
2022-12-25T20:21:30.589Z,9.62
2022-12-25T20:23:58.640Z,9.63
2022-12-25T20:26:31.871Z,9.63
2022-12-25T20:28:59.696Z,9.65
2022-12-25T20:31:32.154Z,9.67
2022-12-25T20:34:05.889Z,9.69
2022-12-25T20:36:37.323Z,9.69
2022-12-25T20:39:11.704Z,9.70
2022-12-25T20:41:40.496Z,9.70
2022-12-25T20:44:10.013Z,9.71
2022-12-25T20:46:38.045Z,9.72
2022-12-25T20:49:06.035Z,9.74
2022-12-25T20:51:33.846Z,9.75
2022-12-25T20:54:09.604Z,9.76
2022-12-25T20:56:37.484Z,9.76
2022-12-25T20:59:04.916Z,9.76
2022-12-25T21:01:32.532Z,9.79
2022-12-25T21:04:00.199Z,9.79
2022-12-25T21:06:27.813Z,9.80
2022-12-25T21:08:55.301Z,9.80
2022-12-25T21:11:23.129Z,9.82
2022-12-25T21:13:50.668Z,9.81
2022-12-25T21:16:22.049Z,9.83
2022-12-25T21:18:53.273Z,9.84
2022-12-25T21:21:21.928Z,9.85
2022-12-25T21:23:49.522Z,9.86
2022-12-25T21:26:21.937Z,9.89
2022-12-25T21:28:53.275Z,9.90
2022-12-25T21:31:21.777Z,9.90
2022-12-25T21:33:53.914Z,9.90
2022-12-25T21:36:31.240Z,9.92
2022-12-25T21:39:07.364Z,9.93
2022-12-25T21:41:38.655Z,9.94
2022-12-25T21:44:07.484Z,9.93
2022-12-25T21:46:35.094Z,9.94
2022-12-25T21:49:03.943Z,9.94
2022-12-25T21:51:53.000Z,9.94
2022-12-25T21:54:23.058Z,9.94
2022-12-25T21:56:50.642Z,9.94
2022-12-25T21:59:22.043Z,9.97
2022-12-25T22:01:52.337Z,9.95
2022-12-25T22:04:22.629Z,9.95
2022-12-25T22:07:08.804Z,9.95
2022-12-25T22:09:37.115Z,9.94
2022-12-25T22:12:26.206Z,9.94
2022-12-25T22:15:03.776Z,9.94
2022-12-25T22:18:00.722Z,9.95
2022-12-25T22:20:37.554Z,9.94
2022-12-25T22:23:05.893Z,9.94
2022-12-25T22:25:33.577Z,9.94
2022-12-25T22:28:01.164Z,9.94
2022-12-25T22:30:29.681Z,9.94
2022-12-25T22:32:59.299Z,9.95
2022-12-25T22:35:26.867Z,9.94
2022-12-25T22:37:54.865Z,9.94
2022-12-25T22:40:22.495Z,9.95
2022-12-25T22:42:53.955Z,9.94
2022-12-25T22:45:21.593Z,9.94
2022-12-25T22:47:49.441Z,9.93
2022-12-25T22:50:17.052Z,9.92
2022-12-25T22:52:45.792Z,9.93
2022-12-25T22:55:18.381Z,9.93
2022-12-25T22:57:46.036Z,9.93
2022-12-25T23:00:13.971Z,9.92
2022-12-25T23:02:41.567Z,9.90
2022-12-25T23:05:09.427Z,9.90
2022-12-25T23:07:36.981Z,9.90
2022-12-25T23:10:06.603Z,9.91
2022-12-25T23:12:53.195Z,9.90
2022-12-25T23:15:20.865Z,9.91
2022-12-25T23:18:06.808Z,9.92
2022-12-25T23:20:54.976Z,9.90
2022-12-25T23:23:42.014Z,9.89
2022-12-25T23:26:10.933Z,9.90
2022-12-25T23:29:00.928Z,9.91
2022-12-25T23:31:34.007Z,9.91
2022-12-25T23:34:02.285Z,9.91
2022-12-25T23:36:29.736Z,9.91
2022-12-25T23:39:01.584Z,9.92
2022-12-25T23:41:32.736Z,9.91
2022-12-25T23:44:00.217Z,9.92
2022-12-25T23:46:27.698Z,9.92
2022-12-25T23:48:55.245Z,9.92
2022-12-25T23:51:22.719Z,9.92
2022-12-25T23:53:50.188Z,9.93
2022-12-25T23:56:17.687Z,9.91
2022-12-25T23:58:51.357Z,9.90
